createdAt,value
2022-10-15T00:00:37.828Z,1004.90
2022-10-15T00:01:37.798Z,1004.91
2022-10-15T00:02:37.703Z,1004.90
2022-10-15T00:03:37.636Z,1004.87
2022-10-15T00:04:37.577Z,1004.85
2022-10-15T00:05:37.514Z,1004.85
2022-10-15T00:06:37.453Z,1004.84
2022-10-15T00:07:37.390Z,1004.79
2022-10-15T00:08:37.327Z,1004.80
2022-10-15T00:09:37.264Z,1004.77
2022-10-15T00:10:37.206Z,1004.76
2022-10-15T00:11:37.139Z,1004.79
2022-10-15T00:12:37.087Z,1004.79
2022-10-15T00:13:37.014Z,1004.75
2022-10-15T00:14:36.953Z,1004.77
2022-10-15T00:15:36.886Z,1004.71
2022-10-15T00:16:36.828Z,1004.70
2022-10-15T00:17:36.760Z,1004.66
2022-10-15T00:18:36.700Z,1004.71
2022-10-15T00:19:36.641Z,1004.68
2022-10-15T00:20:36.577Z,1004.69
2022-10-15T00:21:36.511Z,1004.64
2022-10-15T00:22:36.456Z,1004.65
2022-10-15T00:23:36.386Z,1004.65
2022-10-15T00:24:36.327Z,1004.59
2022-10-15T00:25:36.264Z,1004.59
2022-10-15T00:26:36.198Z,1004.57
2022-10-15T00:27:36.133Z,1004.57
2022-10-15T00:28:36.106Z,1004.59
2022-10-15T00:29:36.008Z,1004.54
2022-10-15T00:30:35.949Z,1004.55
2022-10-15T00:31:35.882Z,1004.51
2022-10-15T00:32:35.820Z,1004.55
2022-10-15T00:33:35.760Z,1004.50
2022-10-15T00:34:35.699Z,1004.50
2022-10-15T00:35:35.631Z,1004.49
2022-10-15T00:36:35.574Z,1004.49
2022-10-15T00:37:35.504Z,1004.48
2022-10-15T00:38:35.445Z,1004.47
2022-10-15T00:39:35.380Z,1004.49
2022-10-15T00:40:35.317Z,1004.44
2022-10-15T00:41:35.257Z,1004.49
2022-10-15T00:42:35.198Z,1004.44
2022-10-15T00:43:35.127Z,1004.45
2022-10-15T00:44:35.078Z,1004.41
2022-10-15T00:45:35.020Z,1004.44
2022-10-15T00:46:34.943Z,1004.47
2022-10-15T00:47:34.899Z,1004.45
2022-10-15T00:48:34.812Z,1004.43
2022-10-15T00:49:34.752Z,1004.50
2022-10-15T00:50:34.686Z,1004.45
2022-10-15T00:51:34.625Z,1004.46
2022-10-15T00:52:34.560Z,1004.44
2022-10-15T00:53:34.498Z,1004.41
2022-10-15T00:54:34.434Z,1004.41
2022-10-15T00:55:34.372Z,1004.37
2022-10-15T00:56:34.307Z,1004.37
2022-10-15T00:57:34.243Z,1004.34
2022-10-15T00:58:34.186Z,1004.30
2022-10-15T00:59:34.120Z,1004.28
2022-10-15T01:00:34.057Z,1004.30
2022-10-15T01:01:34.041Z,1004.31
2022-10-15T01:02:33.929Z,1004.29
2022-10-15T01:03:33.873Z,1004.27
2022-10-15T01:04:33.807Z,1004.25
2022-10-15T01:05:33.742Z,1004.25
2022-10-15T01:06:33.685Z,1004.23
2022-10-15T01:07:33.612Z,1004.17
2022-10-15T01:08:33.551Z,1004.21
2022-10-15T01:09:33.499Z,1004.17
2022-10-15T01:10:33.426Z,1004.16
2022-10-15T01:11:33.359Z,1004.14
2022-10-15T01:12:33.298Z,1004.13
2022-10-15T01:13:33.234Z,1004.06
2022-10-15T01:14:33.173Z,1004.02
2022-10-15T01:15:33.107Z,1004.02
2022-10-15T01:16:33.056Z,1003.97
2022-10-15T01:17:32.984Z,1004.02
2022-10-15T01:18:32.923Z,1004.00
2022-10-15T01:19:32.860Z,1003.93
2022-10-15T01:20:32.794Z,1004.03
2022-10-15T01:21:32.733Z,1004.04
2022-10-15T01:22:32.667Z,1004.07
2022-10-15T01:23:32.603Z,1004.04
2022-10-15T01:24:32.546Z,1004.05
2022-10-15T01:25:32.476Z,1004.05
2022-10-15T01:26:32.423Z,1004.04
2022-10-15T01:27:32.355Z,1004.00
2022-10-15T01:28:32.355Z,1003.97
2022-10-15T01:29:32.223Z,1003.93
2022-10-15T01:30:32.163Z,1003.96
2022-10-15T01:31:32.098Z,1003.93
2022-10-15T01:32:32.056Z,1003.94
2022-10-15T01:33:31.972Z,1003.98
2022-10-15T01:34:31.911Z,1003.93
2022-10-15T01:35:31.845Z,1003.97
2022-10-15T01:36:31.789Z,1003.90
2022-10-15T01:37:31.721Z,1003.95
2022-10-15T01:38:31.659Z,1003.90
2022-10-15T01:39:31.599Z,1003.85
2022-10-15T01:40:31.537Z,1003.86
2022-10-15T01:41:31.476Z,1003.84
2022-10-15T01:42:31.425Z,1003.84
2022-10-15T01:43:31.345Z,1003.88
2022-10-15T01:44:31.284Z,1003.86
2022-10-15T01:45:31.216Z,1003.86
2022-10-15T01:46:31.155Z,1003.83
2022-10-15T01:47:31.092Z,1003.84
2022-10-15T01:48:31.036Z,1003.85
2022-10-15T01:49:30.971Z,1003.85
2022-10-15T01:50:30.913Z,1003.80
2022-10-15T01:51:30.843Z,1003.81
2022-10-15T01:53:30.713Z,1003.81
2022-10-15T01:54:30.655Z,1003.78
2022-10-15T01:55:30.586Z,1003.81
2022-10-15T01:56:30.528Z,1003.77
2022-10-15T01:57:30.463Z,1003.82
2022-10-15T01:58:30.405Z,1003.81
2022-10-15T01:59:30.336Z,1003.74
2022-10-15T02:00:30.275Z,1003.74
2022-10-15T02:01:30.346Z,1003.76
2022-10-15T02:02:30.152Z,1003.76
2022-10-15T02:03:30.097Z,1003.76
2022-10-15T02:04:30.024Z,1003.74
2022-10-15T02:05:29.960Z,1003.73
2022-10-15T02:06:29.912Z,1003.75
2022-10-15T02:07:29.834Z,1003.70
2022-10-15T02:08:29.770Z,1003.71
2022-10-15T02:09:29.707Z,1003.74
2022-10-15T02:10:29.645Z,1003.73
2022-10-15T02:11:29.586Z,1003.70
2022-10-15T02:12:29.518Z,1003.69
2022-10-15T02:13:29.456Z,1003.64
2022-10-15T02:14:29.392Z,1003.61
2022-10-15T02:15:29.329Z,1003.58
2022-10-15T02:16:29.268Z,1003.60
2022-10-15T02:17:29.204Z,1003.59
2022-10-15T02:18:29.142Z,1003.54
2022-10-15T02:19:29.079Z,1003.58
2022-10-15T02:20:29.021Z,1003.55
2022-10-15T02:21:28.954Z,1003.58
2022-10-15T02:22:28.891Z,1003.53
2022-10-15T02:23:28.834Z,1003.52
2022-10-15T02:24:28.766Z,1003.48
2022-10-15T02:25:28.707Z,1003.52
2022-10-15T02:26:28.640Z,1003.49
2022-10-15T02:27:28.603Z,1003.52
2022-10-15T02:28:28.570Z,1003.52
2022-10-15T02:29:28.459Z,1003.54
2022-10-15T02:30:28.389Z,1003.52
2022-10-15T02:31:28.327Z,1003.55
2022-10-15T02:32:28.260Z,1003.56
2022-10-15T02:33:28.201Z,1003.54
2022-10-15T02:34:28.136Z,1003.56
2022-10-15T02:35:28.080Z,1003.57
2022-10-15T02:36:28.016Z,1003.55
2022-10-15T02:37:27.947Z,1003.53
2022-10-15T02:38:27.886Z,1003.60
2022-10-15T02:39:27.822Z,1003.57
2022-10-15T02:40:27.761Z,1003.56
2022-10-15T02:41:27.697Z,1003.55
2022-10-15T02:42:27.633Z,1003.50
2022-10-15T02:43:27.570Z,1003.52
2022-10-15T02:44:27.509Z,1003.52
2022-10-15T02:45:27.453Z,1003.48
2022-10-15T02:46:27.387Z,1003.48
2022-10-15T02:47:27.340Z,1003.42
2022-10-15T02:48:27.278Z,1003.40
2022-10-15T02:49:27.218Z,1003.43
2022-10-15T02:50:27.132Z,1003.43
2022-10-15T02:51:27.077Z,1003.40
2022-10-15T02:52:27.071Z,1003.38
2022-10-15T02:53:26.951Z,1003.39
2022-10-15T02:54:26.883Z,1003.37
2022-10-15T02:55:26.818Z,1003.37
2022-10-15T02:56:26.804Z,1003.36
2022-10-15T02:57:27.003Z,1003.39
2022-10-15T02:58:26.639Z,1003.34
2022-10-15T02:59:26.572Z,1003.33
2022-10-15T03:00:26.505Z,1003.34
2022-10-15T03:01:26.551Z,1003.34
2022-10-15T03:02:26.383Z,1003.28
2022-10-15T03:03:26.318Z,1003.31
2022-10-15T03:04:26.256Z,1003.32
2022-10-15T03:05:26.199Z,1003.33
2022-10-15T03:06:26.133Z,1003.31
2022-10-15T03:07:26.416Z,1003.30
2022-10-15T03:08:26.005Z,1003.34
2022-10-15T03:09:25.943Z,1003.30
2022-10-15T03:10:25.882Z,1003.33
2022-10-15T03:11:25.818Z,1003.31
2022-10-15T03:12:25.755Z,1003.34
2022-10-15T03:13:25.720Z,1003.40
2022-10-15T03:14:25.700Z,1003.36
2022-10-15T03:15:25.568Z,1003.36
2022-10-15T03:16:25.505Z,1003.35
2022-10-15T03:17:25.802Z,1003.37
2022-10-15T03:18:25.378Z,1003.40
2022-10-15T03:19:25.318Z,1003.40
2022-10-15T03:20:25.267Z,1003.34
2022-10-15T03:21:25.192Z,1003.33
2022-10-15T03:22:25.130Z,1003.32
2022-10-15T03:23:25.093Z,1003.33
2022-10-15T03:24:25.010Z,1003.32
2022-10-15T03:25:24.951Z,1003.32
2022-10-15T03:26:24.879Z,1003.29
2022-10-15T03:27:25.082Z,1003.27
2022-10-15T03:28:24.767Z,1003.25
2022-10-15T03:29:24.694Z,1003.22
2022-10-15T03:30:24.627Z,1003.19
2022-10-15T03:31:24.567Z,1003.19
2022-10-15T03:32:24.623Z,1003.13
2022-10-15T03:33:25.287Z,1003.12
2022-10-15T03:34:24.394Z,1003.14
2022-10-15T03:35:24.316Z,1003.12
2022-10-15T03:36:24.257Z,1003.11
2022-10-15T03:37:24.535Z,1003.14
2022-10-15T03:38:24.130Z,1003.13
2022-10-15T03:39:24.066Z,1003.17
2022-10-15T03:40:24.004Z,1003.16
2022-10-15T03:41:23.940Z,1003.12
2022-10-15T03:42:24.070Z,1003.14
2022-10-15T03:43:23.814Z,1003.10
2022-10-15T03:44:23.750Z,1003.15
2022-10-15T03:45:23.690Z,1003.11
2022-10-15T03:46:23.628Z,1003.14
2022-10-15T03:47:23.566Z,1003.15
2022-10-15T03:48:23.501Z,1003.14
2022-10-15T03:49:23.438Z,1003.16
2022-10-15T03:50:23.374Z,1003.16
2022-10-15T03:51:25.561Z,1003.14
2022-10-15T03:52:23.508Z,1003.18
2022-10-15T03:53:23.191Z,1003.13
2022-10-15T03:54:23.129Z,1003.14
2022-10-15T03:55:23.067Z,1003.14
2022-10-15T03:56:23.000Z,1003.13
2022-10-15T03:57:22.940Z,1003.14
2022-10-15T03:58:22.875Z,1003.11
2022-10-15T03:59:22.821Z,1003.10
2022-10-15T04:00:22.751Z,1003.07
2022-10-15T04:01:22.812Z,1003.12
2022-10-15T04:02:22.908Z,1003.11
2022-10-15T04:03:22.562Z,1003.12
2022-10-15T04:04:22.500Z,1003.10
2022-10-15T04:05:22.437Z,1003.11
2022-10-15T04:06:22.373Z,1003.11
2022-10-15T04:07:22.314Z,1003.11
2022-10-15T04:08:22.253Z,1003.08
2022-10-15T04:09:22.188Z,1003.12
2022-10-15T04:10:22.122Z,1003.10
2022-10-15T04:11:22.060Z,1003.14
2022-10-15T04:12:22.335Z,1003.15
2022-10-15T04:13:21.953Z,1003.20
2022-10-15T04:14:21.872Z,1003.18
2022-10-15T04:15:21.825Z,1003.19
2022-10-15T04:16:21.752Z,1003.20
2022-10-15T04:17:21.686Z,1003.19
2022-10-15T04:18:21.627Z,1003.16
2022-10-15T04:19:21.562Z,1003.22
2022-10-15T04:20:21.496Z,1003.22
2022-10-15T04:21:21.437Z,1003.22
2022-10-15T04:22:21.762Z,1003.24
2022-10-15T04:23:21.311Z,1003.24
2022-10-15T04:24:21.248Z,1003.22
2022-10-15T04:25:21.189Z,1003.23
2022-10-15T04:26:21.129Z,1003.23
2022-10-15T04:27:21.059Z,1003.21
2022-10-15T04:28:21.071Z,1003.22
2022-10-15T04:29:20.935Z,1003.24
2022-10-15T04:30:20.876Z,1003.22
2022-10-15T04:31:20.814Z,1003.20
2022-10-15T04:32:20.920Z,1003.24
2022-10-15T04:33:20.688Z,1003.21
2022-10-15T04:34:20.627Z,1003.19
2022-10-15T04:35:20.559Z,1003.18
2022-10-15T04:36:20.537Z,1003.20
2022-10-15T04:37:20.633Z,1003.21
2022-10-15T04:38:20.371Z,1003.21
2022-10-15T04:39:20.312Z,1003.20
2022-10-15T04:40:20.245Z,1003.22
2022-10-15T04:41:20.187Z,1003.19
2022-10-15T04:42:20.120Z,1003.18
2022-10-15T04:43:20.058Z,1003.19
2022-10-15T04:44:19.996Z,1003.24
2022-10-15T04:45:19.950Z,1003.27
2022-10-15T04:46:19.870Z,1003.24
2022-10-15T04:47:19.815Z,1003.25
2022-10-15T04:48:19.745Z,1003.32
2022-10-15T04:49:19.689Z,1003.30
2022-10-15T04:50:19.619Z,1003.27
2022-10-15T04:51:19.564Z,1003.27
2022-10-15T04:52:19.496Z,1003.30
2022-10-15T04:53:19.465Z,1003.30
2022-10-15T04:54:19.423Z,1003.25
2022-10-15T04:55:19.307Z,1003.29
2022-10-15T04:56:19.244Z,1003.30
2022-10-15T04:57:19.193Z,1003.29
2022-10-15T04:58:19.125Z,1003.28
2022-10-15T04:59:19.058Z,1003.29
2022-10-15T05:00:18.996Z,1003.29
2022-10-15T05:01:18.951Z,1003.28
2022-10-15T05:02:18.923Z,1003.30
2022-10-15T05:03:18.816Z,1003.32
2022-10-15T05:04:18.749Z,1003.33
2022-10-15T05:05:18.693Z,1003.34
2022-10-15T05:06:18.622Z,1003.36
2022-10-15T05:07:18.558Z,1003.29
2022-10-15T05:08:18.500Z,1003.29
2022-10-15T05:09:18.433Z,1003.29
2022-10-15T05:10:18.370Z,1003.28
2022-10-15T05:11:18.311Z,1003.25
2022-10-15T05:12:18.246Z,1003.27
2022-10-15T05:13:18.187Z,1003.25
2022-10-15T05:14:18.122Z,1003.21
2022-10-15T05:15:18.058Z,1003.27
2022-10-15T05:16:18.005Z,1003.25
2022-10-15T05:17:17.937Z,1003.26
2022-10-15T05:18:17.871Z,1003.26
2022-10-15T05:19:17.816Z,1003.30
2022-10-15T05:20:17.746Z,1003.29
2022-10-15T05:21:17.685Z,1003.25
2022-10-15T05:22:17.621Z,1003.25
2022-10-15T05:23:17.562Z,1003.24
2022-10-15T05:24:17.516Z,1003.25
2022-10-15T05:25:17.440Z,1003.26
2022-10-15T05:26:17.373Z,1003.25
2022-10-15T05:27:17.311Z,1003.23
2022-10-15T05:28:17.301Z,1003.24
2022-10-15T05:29:17.198Z,1003.29
2022-10-15T05:30:17.125Z,1003.22
2022-10-15T05:31:19.077Z,1003.29
2022-10-15T05:32:17.070Z,1003.31
2022-10-15T05:33:16.938Z,1003.31
2022-10-15T05:34:16.873Z,1003.32
2022-10-15T05:35:16.817Z,1003.38
2022-10-15T05:36:16.747Z,1003.38
2022-10-15T05:37:16.693Z,1003.38
2022-10-15T05:38:16.623Z,1003.37
2022-10-15T05:39:16.572Z,1003.38
2022-10-15T05:40:19.621Z,1003.37
2022-10-15T05:41:16.437Z,1003.39
2022-10-15T05:42:16.375Z,1003.41
2022-10-15T05:43:16.312Z,1003.48
2022-10-15T05:44:16.249Z,1003.44
2022-10-15T05:45:16.188Z,1003.43
2022-10-15T05:46:16.125Z,1003.42
2022-10-15T05:47:16.063Z,1003.41
2022-10-15T05:48:16.006Z,1003.46
2022-10-15T05:49:15.946Z,1003.50
2022-10-15T05:50:15.884Z,1003.50
2022-10-15T05:51:15.826Z,1003.52
2022-10-15T05:52:15.777Z,1003.49
2022-10-15T05:53:15.689Z,1003.48
2022-10-15T05:54:15.622Z,1003.50
2022-10-15T05:55:15.560Z,1003.46
2022-10-15T05:56:15.497Z,1003.53
2022-10-15T05:57:15.437Z,1003.47
2022-10-15T05:58:15.371Z,1003.47
2022-10-15T05:59:15.311Z,1003.53
2022-10-15T06:00:15.249Z,1003.55
2022-10-15T06:01:15.204Z,1003.51
2022-10-15T06:02:15.199Z,1003.52
2022-10-15T06:03:15.059Z,1003.56
2022-10-15T06:04:14.999Z,1003.57
2022-10-15T06:05:14.944Z,1003.56
2022-10-15T06:06:14.886Z,1003.58
2022-10-15T06:07:14.811Z,1003.58
2022-10-15T06:08:14.763Z,1003.57
2022-10-15T06:09:14.695Z,1003.62
2022-10-15T06:10:14.650Z,1003.64
2022-10-15T06:11:14.581Z,1003.63
2022-10-15T06:12:14.524Z,1003.65
2022-10-15T06:13:14.483Z,1003.66
2022-10-15T06:14:14.373Z,1003.67
2022-10-15T06:15:14.308Z,1003.73
2022-10-15T06:16:16.581Z,1003.72
2022-10-15T06:17:14.186Z,1003.74
2022-10-15T06:18:14.119Z,1003.71
2022-10-15T06:19:14.060Z,1003.76
2022-10-15T06:20:14.023Z,1003.69
2022-10-15T06:21:13.936Z,1003.70
2022-10-15T06:22:13.885Z,1003.70
2022-10-15T06:23:13.814Z,1003.71
2022-10-15T06:24:13.747Z,1003.77
2022-10-15T06:25:13.685Z,1003.72
2022-10-15T06:26:13.618Z,1003.77
2022-10-15T06:27:13.559Z,1003.78
2022-10-15T06:28:13.495Z,1003.80
2022-10-15T06:29:13.434Z,1003.82
2022-10-15T06:30:13.369Z,1003.82
2022-10-15T06:31:13.310Z,1003.85
2022-10-15T06:32:13.246Z,1003.81
2022-10-15T06:33:13.187Z,1003.83
2022-10-15T06:34:13.127Z,1003.81
2022-10-15T06:35:13.057Z,1003.83
2022-10-15T06:36:12.999Z,1003.83
2022-10-15T06:37:12.933Z,1003.87
2022-10-15T06:38:12.874Z,1003.85
2022-10-15T06:39:12.810Z,1003.85
2022-10-15T06:40:12.763Z,1003.87
2022-10-15T06:41:12.681Z,1003.89
2022-10-15T06:42:12.631Z,1003.91
2022-10-15T06:43:12.556Z,1003.91
2022-10-15T06:44:12.496Z,1003.95
2022-10-15T06:45:12.436Z,1003.94
2022-10-15T06:46:12.374Z,1003.97
2022-10-15T06:47:12.321Z,1003.95
2022-10-15T06:48:12.249Z,1003.97
2022-10-15T06:49:12.192Z,1003.95
2022-10-15T06:50:12.126Z,1003.94
2022-10-15T06:51:12.061Z,1003.98
2022-10-15T06:52:12.001Z,1004.03
2022-10-15T06:53:11.938Z,1003.99
2022-10-15T06:54:11.880Z,1004.03
2022-10-15T06:55:11.809Z,1004.01
2022-10-15T06:56:11.753Z,1004.02
2022-10-15T06:57:11.685Z,1003.98
2022-10-15T06:58:11.641Z,1004.02
2022-10-15T06:59:11.562Z,1004.02
2022-10-15T07:00:11.510Z,1004.03
2022-10-15T07:01:11.435Z,1004.04
2022-10-15T07:02:11.377Z,1004.08
2022-10-15T07:03:11.313Z,1004.12
2022-10-15T07:04:11.249Z,1004.13
2022-10-15T07:05:11.191Z,1004.10
2022-10-15T07:06:11.128Z,1004.12
2022-10-15T07:07:11.066Z,1004.16
2022-10-15T07:08:13.161Z,1004.15
2022-10-15T07:09:10.939Z,1004.17
2022-10-15T07:10:10.923Z,1004.21
2022-10-15T07:11:10.816Z,1004.19
2022-10-15T07:12:10.754Z,1004.21
2022-10-15T07:13:10.692Z,1004.23
2022-10-15T07:14:10.634Z,1004.25
2022-10-15T07:15:10.580Z,1004.27
2022-10-15T07:16:10.508Z,1004.31
2022-10-15T07:17:10.447Z,1004.29
2022-10-15T07:18:10.385Z,1004.32
2022-10-15T07:19:10.324Z,1004.31
2022-10-15T07:20:10.282Z,1004.32
2022-10-15T07:22:10.144Z,1004.35
2022-10-15T07:23:10.080Z,1004.36
2022-10-15T07:24:10.027Z,1004.34
2022-10-15T07:25:09.951Z,1004.36
2022-10-15T07:26:09.901Z,1004.34
2022-10-15T07:27:18.797Z,1004.35
2022-10-15T07:28:09.807Z,1004.37
2022-10-15T07:29:09.712Z,1004.34
2022-10-15T07:30:09.642Z,1004.30
2022-10-15T07:31:09.579Z,1004.31
2022-10-15T07:32:09.517Z,1004.26
2022-10-15T07:33:09.457Z,1004.22
2022-10-15T07:34:09.397Z,1004.25
2022-10-15T07:35:09.330Z,1004.28
2022-10-15T07:36:09.269Z,1004.27
2022-10-15T07:37:09.210Z,1004.24
2022-10-15T07:38:09.148Z,1004.26
2022-10-15T07:39:09.086Z,1004.25
2022-10-15T07:40:09.090Z,1004.25
2022-10-15T07:41:08.964Z,1004.24
2022-10-15T07:42:08.938Z,1004.29
2022-10-15T07:43:08.834Z,1004.26
2022-10-15T07:44:08.779Z,1004.28
2022-10-15T07:45:08.717Z,1004.33
2022-10-15T07:46:08.674Z,1004.33
2022-10-15T07:47:08.592Z,1004.31
2022-10-15T07:48:08.531Z,1004.35
2022-10-15T07:49:08.474Z,1004.31
2022-10-15T07:50:08.407Z,1004.30
2022-10-15T07:51:08.421Z,1004.30
2022-10-15T07:52:08.283Z,1004.32
2022-10-15T07:53:08.220Z,1004.31
2022-10-15T07:54:08.160Z,1004.28
2022-10-15T07:55:08.097Z,1004.26
2022-10-15T07:56:08.095Z,1004.31
2022-10-15T07:57:07.979Z,1004.26
2022-10-15T07:58:07.914Z,1004.28
2022-10-15T07:59:07.850Z,1004.30
2022-10-15T08:00:07.792Z,1004.24
2022-10-15T08:01:07.736Z,1004.26
2022-10-15T08:02:07.673Z,1004.25
2022-10-15T08:03:07.612Z,1004.26
2022-10-15T08:04:07.543Z,1004.24
2022-10-15T08:05:07.486Z,1004.27
2022-10-15T08:06:07.423Z,1004.26
2022-10-15T08:07:10.177Z,1004.26
2022-10-15T08:08:07.298Z,1004.28
2022-10-15T08:09:07.236Z,1004.25
2022-10-15T08:10:07.176Z,1004.28
2022-10-15T08:11:07.113Z,1004.28
2022-10-15T08:12:07.161Z,1004.31
2022-10-15T08:13:06.990Z,1004.32
2022-10-15T08:14:06.937Z,1004.33
2022-10-15T08:15:06.870Z,1004.34
2022-10-15T08:16:06.808Z,1004.35
2022-10-15T08:17:06.748Z,1004.40
2022-10-15T08:18:06.686Z,1004.44
2022-10-15T08:19:06.628Z,1004.47
2022-10-15T08:20:06.570Z,1004.47
2022-10-15T08:21:06.506Z,1004.48
2022-10-15T08:22:06.444Z,1004.43
2022-10-15T08:23:06.387Z,1004.49
2022-10-15T08:24:06.326Z,1004.52
2022-10-15T08:25:06.268Z,1004.52
2022-10-15T08:26:06.202Z,1004.49
2022-10-15T08:27:06.141Z,1004.49
2022-10-15T08:28:06.194Z,1004.54
2022-10-15T08:29:06.123Z,1004.58
2022-10-15T08:30:05.968Z,1004.53
2022-10-15T08:31:06.203Z,1004.55
2022-10-15T08:32:05.867Z,1004.55
2022-10-15T08:33:05.791Z,1004.51
2022-10-15T08:34:05.720Z,1004.53
2022-10-15T08:35:05.658Z,1004.57
2022-10-15T08:36:05.604Z,1004.58
2022-10-15T08:37:05.569Z,1004.62
2022-10-15T08:38:05.484Z,1004.62
2022-10-15T08:39:05.418Z,1004.64
2022-10-15T08:40:05.362Z,1004.62
2022-10-15T08:41:05.303Z,1004.61
2022-10-15T08:42:05.244Z,1004.63
2022-10-15T08:43:05.179Z,1004.63
2022-10-15T08:44:05.123Z,1004.61
2022-10-15T08:45:05.064Z,1004.59
2022-10-15T08:46:05.046Z,1004.64
2022-10-15T08:47:04.945Z,1004.62
2022-10-15T08:48:04.886Z,1004.64
2022-10-15T08:49:04.826Z,1004.64
2022-10-15T08:50:04.763Z,1004.67
2022-10-15T08:51:04.706Z,1004.68
2022-10-15T08:52:04.649Z,1004.69
2022-10-15T08:53:04.584Z,1004.70
2022-10-15T08:54:04.527Z,1004.65
2022-10-15T08:55:04.465Z,1004.66
2022-10-15T08:56:04.416Z,1004.68
2022-10-15T08:57:04.351Z,1004.66
2022-10-15T08:58:04.291Z,1004.68
2022-10-15T08:59:04.234Z,1004.72
2022-10-15T09:00:04.178Z,1004.67
2022-10-15T09:01:04.114Z,1004.69
2022-10-15T09:02:04.057Z,1004.70
2022-10-15T09:03:04.098Z,1004.72
2022-10-15T09:04:03.941Z,1004.71
2022-10-15T09:05:03.888Z,1004.72
2022-10-15T09:06:03.831Z,1004.70
2022-10-15T09:07:03.792Z,1004.68
2022-10-15T09:08:03.712Z,1004.72
2022-10-15T09:09:03.665Z,1004.75
2022-10-15T09:10:03.604Z,1004.72
2022-10-15T09:11:03.608Z,1004.73
2022-10-15T09:12:03.493Z,1004.74
2022-10-15T09:13:03.438Z,1004.70
2022-10-15T09:14:03.374Z,1004.69
2022-10-15T09:15:03.317Z,1004.73
2022-10-15T09:16:03.295Z,1004.73
2022-10-15T09:17:03.199Z,1004.74
2022-10-15T09:18:03.147Z,1004.75
2022-10-15T09:19:03.091Z,1004.73
2022-10-15T09:20:03.031Z,1004.75
2022-10-15T09:21:02.970Z,1004.72
2022-10-15T09:22:02.917Z,1004.74
2022-10-15T09:23:02.859Z,1004.75
2022-10-15T09:24:02.803Z,1004.74
2022-10-15T09:25:02.743Z,1004.73
2022-10-15T09:26:02.689Z,1004.77
2022-10-15T09:27:02.630Z,1004.71
2022-10-15T09:28:02.572Z,1004.77
2022-10-15T09:29:02.607Z,1004.77
2022-10-15T09:30:02.632Z,1004.76
2022-10-15T09:31:02.515Z,1004.76
2022-10-15T09:32:02.352Z,1004.75
2022-10-15T09:33:02.282Z,1004.77
2022-10-15T09:34:02.229Z,1004.75
2022-10-15T09:35:02.174Z,1004.82
2022-10-15T09:36:02.113Z,1004.82
2022-10-15T09:37:02.056Z,1004.84
2022-10-15T09:38:05.708Z,1004.86
2022-10-15T09:39:01.942Z,1004.91
2022-10-15T09:40:01.929Z,1004.86
2022-10-15T09:41:01.882Z,1004.89
2022-10-15T09:42:01.775Z,1004.92
2022-10-15T09:43:01.706Z,1004.87
2022-10-15T09:44:01.805Z,1004.81
2022-10-15T09:45:01.593Z,1004.84
2022-10-15T09:46:01.543Z,1004.85
2022-10-15T09:47:01.476Z,1004.81
2022-10-15T09:48:01.430Z,1004.84
2022-10-15T09:49:01.357Z,1004.87
2022-10-15T09:50:01.302Z,1004.88
2022-10-15T09:51:01.243Z,1004.86
2022-10-15T09:52:01.187Z,1004.86
2022-10-15T09:53:01.126Z,1004.89
2022-10-15T09:54:01.085Z,1004.86
2022-10-15T09:55:01.010Z,1004.87
2022-10-15T09:56:00.962Z,1004.88
2022-10-15T09:57:00.894Z,1004.84
2022-10-15T09:58:00.839Z,1004.87
2022-10-15T09:59:01.967Z,1004.89
2022-10-15T10:00:00.724Z,1004.89
2022-10-15T10:01:00.664Z,1004.89
2022-10-15T10:02:00.727Z,1004.87
2022-10-15T10:03:00.543Z,1004.86
2022-10-15T10:04:00.488Z,1004.85
2022-10-15T10:05:01.570Z,1004.86
2022-10-15T10:06:00.370Z,1004.83
2022-10-15T10:07:00.309Z,1004.89
2022-10-15T10:08:00.252Z,1004.89
2022-10-15T10:09:00.197Z,1004.87
2022-10-15T10:10:00.138Z,1004.88
2022-10-15T10:11:00.083Z,1004.95
2022-10-15T10:12:00.024Z,1004.92
2022-10-15T10:12:59.967Z,1004.94
2022-10-15T10:13:59.910Z,1004.98
2022-10-15T10:14:59.840Z,1004.94
2022-10-15T10:15:59.783Z,1004.98
2022-10-15T10:16:59.726Z,1004.99
2022-10-15T10:17:59.670Z,1005.00
2022-10-15T10:18:59.607Z,1005.00
2022-10-15T10:19:59.550Z,1004.99
2022-10-15T10:20:59.492Z,1005.01
2022-10-15T10:21:59.437Z,1004.99
2022-10-15T10:22:59.374Z,1004.99
2022-10-15T10:23:59.315Z,1004.97
2022-10-15T10:24:59.257Z,1004.98
2022-10-15T10:25:59.198Z,1004.99
2022-10-15T10:26:59.167Z,1004.99
2022-10-15T10:27:59.082Z,1004.99
2022-10-15T10:29:05.087Z,1004.99
2022-10-15T10:29:58.966Z,1005.01
2022-10-15T10:30:58.914Z,1004.98
2022-10-15T10:31:58.848Z,1004.98
2022-10-15T10:32:58.786Z,1004.96
2022-10-15T10:33:58.730Z,1004.97
2022-10-15T10:34:58.671Z,1005.01
2022-10-15T10:35:58.673Z,1005.02
2022-10-15T10:36:58.552Z,1005.03
2022-10-15T10:37:58.494Z,1004.97
2022-10-15T10:38:58.434Z,1004.98
2022-10-15T10:39:58.379Z,1005.00
2022-10-15T10:40:58.321Z,1004.98
2022-10-15T10:41:58.261Z,1005.02
2022-10-15T10:42:59.709Z,1004.99
2022-10-15T10:43:58.146Z,1005.00
2022-10-15T10:44:58.084Z,1004.99
2022-10-15T10:45:58.026Z,1005.02
2022-10-15T10:46:57.972Z,1004.98
2022-10-15T10:47:57.910Z,1004.98
2022-10-15T10:48:57.851Z,1004.96
2022-10-15T10:49:57.790Z,1004.98
2022-10-15T10:50:57.737Z,1005.01
2022-10-15T10:51:57.675Z,1004.97
2022-10-15T10:52:57.615Z,1004.99
2022-10-15T10:53:57.555Z,1004.95
2022-10-15T10:54:57.499Z,1005.02
2022-10-15T10:55:57.436Z,1005.00
2022-10-15T10:56:57.380Z,1005.01
2022-10-15T10:57:57.324Z,1005.01
2022-10-15T10:58:57.262Z,1004.99
2022-10-15T10:59:57.209Z,1005.00
2022-10-15T11:00:57.179Z,1004.97
2022-10-15T11:01:57.087Z,1005.00
2022-10-15T11:02:57.048Z,1005.02
2022-10-15T11:03:57.041Z,1005.00
2022-10-15T11:04:56.911Z,1004.97
2022-10-15T11:05:56.850Z,1004.98
2022-10-15T11:06:56.792Z,1004.98
2022-10-15T11:07:56.747Z,1004.93
2022-10-15T11:08:56.698Z,1004.92
2022-10-15T11:09:56.630Z,1004.91
2022-10-15T11:10:56.620Z,1004.91
2022-10-15T11:11:56.512Z,1004.93
2022-10-15T11:12:56.444Z,1004.90
2022-10-15T11:13:56.382Z,1004.87
2022-10-15T11:14:56.324Z,1004.88
2022-10-15T11:15:56.264Z,1004.90
2022-10-15T11:16:56.208Z,1004.95
2022-10-15T11:17:56.156Z,1004.95
2022-10-15T11:18:56.090Z,1004.96
2022-10-15T11:20:59.649Z,1004.93
2022-10-15T11:21:55.923Z,1004.94
2022-10-15T11:22:55.860Z,1004.97
2022-10-15T11:23:55.797Z,1004.99
2022-10-15T11:25:06.655Z,1004.95
2022-10-15T11:25:55.678Z,1004.94
2022-10-15T11:27:11.731Z,1004.94
2022-10-15T11:27:55.570Z,1004.96
2022-10-15T11:28:55.560Z,1004.93
2022-10-15T11:29:55.463Z,1004.93
2022-10-15T11:30:55.389Z,1004.89
2022-10-15T11:32:02.644Z,1004.88
2022-10-15T11:33:06.828Z,1004.89
2022-10-15T11:33:55.214Z,1004.87
2022-10-15T11:34:55.161Z,1004.87
2022-10-15T11:35:55.095Z,1004.88
2022-10-15T11:36:55.033Z,1004.86
2022-10-15T11:37:54.975Z,1004.88
2022-10-15T11:38:54.921Z,1004.86
2022-10-15T11:39:54.874Z,1004.89
2022-10-15T11:40:54.808Z,1004.88
2022-10-15T11:41:54.739Z,1004.86
2022-10-15T11:42:54.684Z,1004.88
2022-10-15T11:43:54.621Z,1004.86
2022-10-15T11:44:54.567Z,1004.84
2022-10-15T11:45:54.503Z,1004.80
2022-10-15T11:46:54.449Z,1004.80
2022-10-15T11:47:54.399Z,1004.76
2022-10-15T11:48:54.333Z,1004.77
2022-10-15T11:49:54.279Z,1004.75
2022-10-15T11:50:54.231Z,1004.77
2022-10-15T11:51:54.159Z,1004.74
2022-10-15T11:52:54.097Z,1004.78
2022-10-15T11:53:54.044Z,1004.80
2022-10-15T11:54:53.979Z,1004.84
2022-10-15T11:55:53.923Z,1004.77
2022-10-15T11:56:53.867Z,1004.80
2022-10-15T11:57:53.803Z,1004.77
2022-10-15T11:58:53.788Z,1004.77
2022-10-15T11:59:53.694Z,1004.77
2022-10-15T12:00:53.629Z,1004.75
2022-10-15T12:01:53.568Z,1004.72
2022-10-15T12:02:53.553Z,1004.70
2022-10-15T12:03:53.489Z,1004.64
2022-10-15T12:04:53.394Z,1004.65
2022-10-15T12:05:53.332Z,1004.63
2022-10-15T12:06:53.275Z,1004.68
2022-10-15T12:07:53.232Z,1004.71